sensor_id;sensor_type;location;lat;lon;timestamp;temperature;humidity
76291;DHT22;65100;46.884;17.410;2024-02-28T00:01:29;11.36;85.44
76291;DHT22;65100;46.884;17.410;2024-02-28T00:03:55;11.21;86.18
76291;DHT22;65100;46.884;17.410;2024-02-28T00:06:20;11.18;86.47
76291;DHT22;65100;46.884;17.410;2024-02-28T00:08:46;11.16;86.36
76291;DHT22;65100;46.884;17.410;2024-02-28T00:11:11;11.31;86.10
76291;DHT22;65100;46.884;17.410;2024-02-28T00:13:36;11.39;85.74
76291;DHT22;65100;46.884;17.410;2024-02-28T00:16:02;11.39;85.42
76291;DHT22;65100;46.884;17.410;2024-02-28T00:18:28;11.24;85.89
76291;DHT22;65100;46.884;17.410;2024-02-28T00:20:55;11.01;86.80
76291;DHT22;65100;46.884;17.410;2024-02-28T00:23:20;10.87;87.73
76291;DHT22;65100;46.884;17.410;2024-02-28T00:25:46;11.04;87.66
76291;DHT22;65100;46.884;17.410;2024-02-28T00:28:11;11.10;87.53
76291;DHT22;65100;46.884;17.410;2024-02-28T00:30:37;10.87;87.99
76291;DHT22;65100;46.884;17.410;2024-02-28T00:33:02;11.04;87.18
76291;DHT22;65100;46.884;17.410;2024-02-28T00:35:31;10.90;87.50
76291;DHT22;65100;46.884;17.410;2024-02-28T00:37:58;10.78;88.21
76291;DHT22;65100;46.884;17.410;2024-02-28T00:40:23;11.04;87.55
76291;DHT22;65100;46.884;17.410;2024-02-28T00:42:50;11.12;86.96
76291;DHT22;65100;46.884;17.410;2024-02-28T00:45:16;11.16;86.91
76291;DHT22;65100;46.884;17.410;2024-02-28T00:47:41;11.35;86.07
76291;DHT22;65100;46.884;17.410;2024-02-28T00:50:08;11.35;85.14
76291;DHT22;65100;46.884;17.410;2024-02-28T00:52:33;11.29;85.42
76291;DHT22;65100;46.884;17.410;2024-02-28T00:54:59;11.28;85.22
76291;DHT22;65100;46.884;17.410;2024-02-28T00:57:25;11.21;85.06
76291;DHT22;65100;46.884;17.410;2024-02-28T00:59:50;11.14;85.26
76291;DHT22;65100;46.884;17.410;2024-02-28T01:02:16;11.04;85.41
76291;DHT22;65100;46.884;17.410;2024-02-28T01:04:41;10.97;85.48
76291;DHT22;65100;46.884;17.410;2024-02-28T01:07:07;10.92;85.89
76291;DHT22;65100;46.884;17.410;2024-02-28T01:09:32;10.90;85.47
76291;DHT22;65100;46.884;17.410;2024-02-28T01:11:58;10.87;85.62
76291;DHT22;65100;46.884;17.410;2024-02-28T01:14:24;10.82;85.64
76291;DHT22;65100;46.884;17.410;2024-02-28T01:16:49;10.74;85.93
76291;DHT22;65100;46.884;17.410;2024-02-28T01:19:16;10.67;86.17
76291;DHT22;65100;46.884;17.410;2024-02-28T01:21:41;10.63;86.55
76291;DHT22;65100;46.884;17.410;2024-02-28T01:24:07;10.71;86.48
76291;DHT22;65100;46.884;17.410;2024-02-28T01:26:32;10.67;86.70
76291;DHT22;65100;46.884;17.410;2024-02-28T01:28:58;10.60;86.90
76291;DHT22;65100;46.884;17.410;2024-02-28T01:31:23;10.53;87.22
76291;DHT22;65100;46.884;17.410;2024-02-28T01:33:49;10.57;86.80
76291;DHT22;65100;46.884;17.410;2024-02-28T01:36:14;10.58;86.38
76291;DHT22;65100;46.884;17.410;2024-02-28T01:38:39;10.41;86.84
76291;DHT22;65100;46.884;17.410;2024-02-28T01:41:05;10.32;86.93
76291;DHT22;65100;46.884;17.410;2024-02-28T01:43:31;10.34;85.75
76291;DHT22;65100;46.884;17.410;2024-02-28T01:46:00;10.13;86.34
76291;DHT22;65100;46.884;17.410;2024-02-28T01:48:26;10.12;86.00
76291;DHT22;65100;46.884;17.410;2024-02-28T01:50:52;10.13;85.40
76291;DHT22;65100;46.884;17.410;2024-02-28T01:53:17;10.06;84.99
76291;DHT22;65100;46.884;17.410;2024-02-28T01:55:43;10.00;85.71
76291;DHT22;65100;46.884;17.410;2024-02-28T01:58:08;10.03;84.50
76291;DHT22;65100;46.884;17.410;2024-02-28T02:00:34;10.03;85.00
76291;DHT22;65100;46.884;17.410;2024-02-28T02:03:01;10.06;83.24
76291;DHT22;65100;46.884;17.410;2024-02-28T02:05:26;9.92;83.92
76291;DHT22;65100;46.884;17.410;2024-02-28T02:07:52;9.76;84.89
76291;DHT22;65100;46.884;17.410;2024-02-28T02:10:17;9.85;85.24
76291;DHT22;65100;46.884;17.410;2024-02-28T02:12:43;9.85;85.93
76291;DHT22;65100;46.884;17.410;2024-02-28T02:15:08;9.92;85.76
76291;DHT22;65100;46.884;17.410;2024-02-28T02:17:34;9.86;85.51
76291;DHT22;65100;46.884;17.410;2024-02-28T02:20:00;9.75;86.31
76291;DHT22;65100;46.884;17.410;2024-02-28T02:22:27;9.76;85.09
76291;DHT22;65100;46.884;17.410;2024-02-28T02:24:54;9.66;83.66
76291;DHT22;65100;46.884;17.410;2024-02-28T02:27:20;9.55;84.37
76291;DHT22;65100;46.884;17.410;2024-02-28T02:29:45;9.45;84.82
76291;DHT22;65100;46.884;17.410;2024-02-28T02:32:11;9.39;85.77
76291;DHT22;65100;46.884;17.410;2024-02-28T02:34:36;9.38;86.02
76291;DHT22;65100;46.884;17.410;2024-02-28T02:37:02;9.42;86.13
76291;DHT22;65100;46.884;17.410;2024-02-28T02:39:27;9.36;85.91
76291;DHT22;65100;46.884;17.410;2024-02-28T02:41:53;9.28;86.81
76291;DHT22;65100;46.884;17.410;2024-02-28T02:44:18;9.35;86.84
76291;DHT22;65100;46.884;17.410;2024-02-28T02:46:44;9.39;86.51
76291;DHT22;65100;46.884;17.410;2024-02-28T02:49:09;9.29;87.12
76291;DHT22;65100;46.884;17.410;2024-02-28T02:51:34;9.28;87.12
76291;DHT22;65100;46.884;17.410;2024-02-28T02:54:00;9.22;87.18
76291;DHT22;65100;46.884;17.410;2024-02-28T02:56:25;8.87;88.15
76291;DHT22;65100;46.884;17.410;2024-02-28T02:58:51;8.50;89.87
76291;DHT22;65100;46.884;17.410;2024-02-28T03:01:16;8.71;89.50
76291;DHT22;65100;46.884;17.410;2024-02-28T03:03:42;8.94;87.61
76291;DHT22;65100;46.884;17.410;2024-02-28T03:06:07;8.89;87.49
76291;DHT22;65100;46.884;17.410;2024-02-28T03:08:33;9.11;88.21
76291;DHT22;65100;46.884;17.410;2024-02-28T03:10:58;9.32;88.17
76291;DHT22;65100;46.884;17.410;2024-02-28T03:13:24;9.29;88.02
76291;DHT22;65100;46.884;17.410;2024-02-28T03:15:49;9.14;88.43
76291;DHT22;65100;46.884;17.410;2024-02-28T03:18:14;9.24;88.21
76291;DHT22;65100;46.884;17.410;2024-02-28T03:20:40;9.29;87.91
76291;DHT22;65100;46.884;17.410;2024-02-28T03:23:06;9.29;87.66
76291;DHT22;65100;46.884;17.410;2024-02-28T03:25:32;9.38;87.10
76291;DHT22;65100;46.884;17.410;2024-02-28T03:27:58;9.42;86.43
76291;DHT22;65100;46.884;17.410;2024-02-28T03:30:25;9.31;85.85
76291;DHT22;65100;46.884;17.410;2024-02-28T03:32:51;9.26;85.31
76291;DHT22;65100;46.884;17.410;2024-02-28T03:35:16;9.02;85.61
76291;DHT22;65100;46.884;17.410;2024-02-28T03:37:41;8.97;85.63
76291;DHT22;65100;46.884;17.410;2024-02-28T03:40:07;8.87;85.87
76291;DHT22;65100;46.884;17.410;2024-02-28T03:42:33;8.67;86.94
76291;DHT22;65100;46.884;17.410;2024-02-28T03:44:58;8.56;87.65
76291;DHT22;65100;46.884;17.410;2024-02-28T03:47:24;8.67;87.62
76291;DHT22;65100;46.884;17.410;2024-02-28T03:49:50;8.81;86.53
76291;DHT22;65100;46.884;17.410;2024-02-28T03:52:16;8.89;84.75
76291;DHT22;65100;46.884;17.410;2024-02-28T03:54:44;8.78;84.77
76291;DHT22;65100;46.884;17.410;2024-02-28T03:57:10;8.77;85.79
76291;DHT22;65100;46.884;17.410;2024-02-28T03:59:35;8.82;86.11
76291;DHT22;65100;46.884;17.410;2024-02-28T04:02:01;8.85;85.40
76291;DHT22;65100;46.884;17.410;2024-02-28T04:04:27;8.84;86.08
76291;DHT22;65100;46.884;17.410;2024-02-28T04:06:52;8.84;86.58
76291;DHT22;65100;46.884;17.410;2024-02-28T04:09:17;8.89;85.58
76291;DHT22;65100;46.884;17.410;2024-02-28T04:11:43;8.84;84.64
76291;DHT22;65100;46.884;17.410;2024-02-28T04:14:09;8.67;84.00
76291;DHT22;65100;46.884;17.410;2024-02-28T04:16:34;8.51;84.25
76291;DHT22;65100;46.884;17.410;2024-02-28T04:18:59;8.38;84.50
76291;DHT22;65100;46.884;17.410;2024-02-28T04:21:25;8.33;86.22
76291;DHT22;65100;46.884;17.410;2024-02-28T04:23:50;8.41;86.96
76291;DHT22;65100;46.884;17.410;2024-02-28T04:26:16;8.34;88.23
76291;DHT22;65100;46.884;17.410;2024-02-28T04:28:42;8.57;87.89
76291;DHT22;65100;46.884;17.410;2024-02-28T04:31:07;8.77;87.40
76291;DHT22;65100;46.884;17.410;2024-02-28T04:33:36;8.80;86.99
76291;DHT22;65100;46.884;17.410;2024-02-28T04:36:01;8.78;85.66
76291;DHT22;65100;46.884;17.410;2024-02-28T04:38:27;8.54;86.29
76291;DHT22;65100;46.884;17.410;2024-02-28T04:40:52;8.32;87.53
76291;DHT22;65100;46.884;17.410;2024-02-28T04:43:18;8.29;88.85
76291;DHT22;65100;46.884;17.410;2024-02-28T04:45:43;8.64;91.00
76291;DHT22;65100;46.884;17.410;2024-02-28T04:48:08;8.71;89.22
76291;DHT22;65100;46.884;17.410;2024-02-28T04:50:34;8.77;88.32
76291;DHT22;65100;46.884;17.410;2024-02-28T04:53:00;8.81;85.43
76291;DHT22;65100;46.884;17.410;2024-02-28T04:55:25;8.72;85.69
76291;DHT22;65100;46.884;17.410;2024-02-28T04:57:51;8.72;85.64
76291;DHT22;65100;46.884;17.410;2024-02-28T05:00:16;8.50;86.10
76291;DHT22;65100;46.884;17.410;2024-02-28T05:02:42;8.53;86.53
76291;DHT22;65100;46.884;17.410;2024-02-28T05:05:08;8.63;84.27
76291;DHT22;65100;46.884;17.410;2024-02-28T05:07:33;8.43;83.90
76291;DHT22;65100;46.884;17.410;2024-02-28T05:09:59;8.23;86.08
76291;DHT22;65100;46.884;17.410;2024-02-28T05:12:24;8.12;86.47
76291;DHT22;65100;46.884;17.410;2024-02-28T05:14:49;7.89;86.63
76291;DHT22;65100;46.884;17.410;2024-02-28T05:17:15;8.06;84.79
76291;DHT22;65100;46.884;17.410;2024-02-28T05:19:42;8.19;84.28
76291;DHT22;65100;46.884;17.410;2024-02-28T05:22:07;8.30;84.25
76291;DHT22;65100;46.884;17.410;2024-02-28T05:24:32;8.25;82.68
76291;DHT22;65100;46.884;17.410;2024-02-28T05:26:58;8.06;82.82
76291;DHT22;65100;46.884;17.410;2024-02-28T05:29:24;7.87;82.58
76291;DHT22;65100;46.884;17.410;2024-02-28T05:31:51;7.54;83.06
76291;DHT22;65100;46.884;17.410;2024-02-28T05:34:16;7.15;84.75
76291;DHT22;65100;46.884;17.410;2024-02-28T05:36:42;7.05;86.23
76291;DHT22;65100;46.884;17.410;2024-02-28T05:39:07;7.38;85.65
76291;DHT22;65100;46.884;17.410;2024-02-28T05:41:33;7.63;84.64
76291;DHT22;65100;46.884;17.410;2024-02-28T05:43:59;7.68;83.95
76291;DHT22;65100;46.884;17.410;2024-02-28T05:46:24;7.62;82.91
76291;DHT22;65100;46.884;17.410;2024-02-28T05:48:50;7.49;82.36
76291;DHT22;65100;46.884;17.410;2024-02-28T05:51:16;7.47;82.90
76291;DHT22;65100;46.884;17.410;2024-02-28T05:53:42;7.44;82.29
76291;DHT22;65100;46.884;17.410;2024-02-28T05:56:09;7.32;82.79
76291;DHT22;65100;46.884;17.410;2024-02-28T05:58:47;7.29;83.48
76291;DHT22;65100;46.884;17.410;2024-02-28T06:01:16;7.19;83.70
76291;DHT22;65100;46.884;17.410;2024-02-28T06:03:45;7.18;84.41
76291;DHT22;65100;46.884;17.410;2024-02-28T06:06:10;7.08;85.04
76291;DHT22;65100;46.884;17.410;2024-02-28T06:08:38;6.98;85.12
76291;DHT22;65100;46.884;17.410;2024-02-28T06:11:04;7.01;86.13
76291;DHT22;65100;46.884;17.410;2024-02-28T06:16:57;7.42;84.79
76291;DHT22;65100;46.884;17.410;2024-02-28T06:19:23;7.54;84.95
76291;DHT22;65100;46.884;17.410;2024-02-28T06:22:00;7.63;85.13
76291;DHT22;65100;46.884;17.410;2024-02-28T06:28:04;7.78;84.75
76291;DHT22;65100;46.884;17.410;2024-02-28T06:30:32;7.68;84.92
76291;DHT22;65100;46.884;17.410;2024-02-28T06:33:01;7.65;85.02
76291;DHT22;65100;46.884;17.410;2024-02-28T06:35:27;7.66;85.51
76291;DHT22;65100;46.884;17.410;2024-02-28T06:37:53;7.76;85.56
76291;DHT22;65100;46.884;17.410;2024-02-28T06:40:18;7.99;85.04
76291;DHT22;65100;46.884;17.410;2024-02-28T06:42:44;7.96;85.13
76291;DHT22;65100;46.884;17.410;2024-02-28T06:45:10;7.99;85.63
76291;DHT22;65100;46.884;17.410;2024-02-28T06:47:35;7.89;86.36
76291;DHT22;65100;46.884;17.410;2024-02-28T06:50:03;7.99;87.02
76291;DHT22;65100;46.884;17.410;2024-02-28T06:52:32;8.10;86.94
76291;DHT22;65100;46.884;17.410;2024-02-28T06:54:58;8.60;85.89
76291;DHT22;65100;46.884;17.410;2024-02-28T06:57:43;9.00;84.45
76291;DHT22;65100;46.884;17.410;2024-02-28T07:00:10;9.05;84.29
76291;DHT22;65100;46.884;17.410;2024-02-28T07:02:44;9.05;84.59
76291;DHT22;65100;46.884;17.410;2024-02-28T07:05:10;9.12;84.78
76291;DHT22;65100;46.884;17.410;2024-02-28T07:07:35;8.88;85.93
76291;DHT22;65100;46.884;17.410;2024-02-28T07:10:05;9.18;85.39
76291;DHT22;65100;46.884;17.410;2024-02-28T07:12:31;9.43;84.84
76291;DHT22;65100;46.884;17.410;2024-02-28T07:14:57;9.63;84.46
76291;DHT22;65100;46.884;17.410;2024-02-28T07:17:22;9.79;83.83
76291;DHT22;65100;46.884;17.410;2024-02-28T07:19:48;9.99;83.36
76291;DHT22;65100;46.884;17.410;2024-02-28T07:22:13;10.09;83.33
76291;DHT22;65100;46.884;17.410;2024-02-28T07:24:39;10.17;83.59
76291;DHT22;65100;46.884;17.410;2024-02-28T07:27:04;10.24;84.13
76291;DHT22;65100;46.884;17.410;2024-02-28T07:29:30;10.63;83.57
76291;DHT22;65100;46.884;17.410;2024-02-28T07:31:55;10.87;82.87
76291;DHT22;65100;46.884;17.410;2024-02-28T07:34:21;11.07;82.63
76291;DHT22;65100;46.884;17.410;2024-02-28T07:36:46;11.25;82.53
76291;DHT22;65100;46.884;17.410;2024-02-28T07:39:12;11.55;82.17
76291;DHT22;65100;46.884;17.410;2024-02-28T07:41:41;11.92;80.92
76291;DHT22;65100;46.884;17.410;2024-02-28T07:44:07;12.07;80.02
76291;DHT22;65100;46.884;17.410;2024-02-28T07:46:33;11.73;80.93
76291;DHT22;65100;46.884;17.410;2024-02-28T07:48:59;11.65;81.53
76291;DHT22;65100;46.884;17.410;2024-02-28T07:51:26;11.79;81.29
76291;DHT22;65100;46.884;17.410;2024-02-28T07:53:52;12.09;79.56
76291;DHT22;65100;46.884;17.410;2024-02-28T07:56:19;12.00;79.80
76291;DHT22;65100;46.884;17.410;2024-02-28T07:58:45;12.17;79.93
76291;DHT22;65100;46.884;17.410;2024-02-28T08:01:11;12.33;79.80
76291;DHT22;65100;46.884;17.410;2024-02-28T08:03:39;12.43;79.83
76291;DHT22;65100;46.884;17.410;2024-02-28T08:06:06;12.80;78.90
76291;DHT22;65100;46.884;17.410;2024-02-28T08:08:31;13.07;78.66
76291;DHT22;65100;46.884;17.410;2024-02-28T08:10:57;13.10;77.17
76291;DHT22;65100;46.884;17.410;2024-02-28T08:13:22;13.10;78.21
76291;DHT22;65100;46.884;17.410;2024-02-28T08:15:48;13.61;77.24
76291;DHT22;65100;46.884;17.410;2024-02-28T08:18:16;13.90;76.13
76291;DHT22;65100;46.884;17.410;2024-02-28T08:20:42;13.95;76.73
76291;DHT22;65100;46.884;17.410;2024-02-28T08:23:08;14.13;75.89
76291;DHT22;65100;46.884;17.410;2024-02-28T08:25:33;14.21;75.88
76291;DHT22;65100;46.884;17.410;2024-02-28T08:27:59;14.44;75.37
76291;DHT22;65100;46.884;17.410;2024-02-28T08:30:24;14.53;75.53
76291;DHT22;65100;46.884;17.410;2024-02-28T08:32:50;14.43;75.18
76291;DHT22;65100;46.884;17.410;2024-02-28T08:35:18;14.47;74.51
76291;DHT22;65100;46.884;17.410;2024-02-28T08:37:43;14.31;74.79
76291;DHT22;65100;46.884;17.410;2024-02-28T08:40:10;14.63;73.25
76291;DHT22;65100;46.884;17.410;2024-02-28T08:42:36;14.59;74.10
76291;DHT22;65100;46.884;17.410;2024-02-28T08:45:02;14.47;73.71
76291;DHT22;65100;46.884;17.410;2024-02-28T08:47:29;14.50;73.88
76291;DHT22;65100;46.884;17.410;2024-02-28T08:49:55;14.59;73.98
76291;DHT22;65100;46.884;17.410;2024-02-28T08:52:23;14.50;74.19
76291;DHT22;65100;46.884;17.410;2024-02-28T08:54:49;14.20;74.74
76291;DHT22;65100;46.884;17.410;2024-02-28T08:57:15;14.34;74.53
76291;DHT22;65100;46.884;17.410;2024-02-28T08:59:40;14.31;74.59
76291;DHT22;65100;46.884;17.410;2024-02-28T09:02:09;14.54;74.88
76291;DHT22;65100;46.884;17.410;2024-02-28T09:04:36;14.85;72.87
76291;DHT22;65100;46.884;17.410;2024-02-28T09:07:01;14.92;72.09
76291;DHT22;65100;46.884;17.410;2024-02-28T09:09:27;14.74;72.70
76291;DHT22;65100;46.884;17.410;2024-02-28T09:11:59;14.50;73.95
76291;DHT22;65100;46.884;17.410;2024-02-28T09:14:28;14.51;73.57
76291;DHT22;65100;46.884;17.410;2024-02-28T09:16:53;14.41;74.32
76291;DHT22;65100;46.884;17.410;2024-02-28T09:19:21;14.74;73.76
76291;DHT22;65100;46.884;17.410;2024-02-28T09:21:46;14.99;73.82
76291;DHT22;65100;46.884;17.410;2024-02-28T09:24:13;15.22;72.47
76291;DHT22;65100;46.884;17.410;2024-02-28T09:26:39;15.49;71.34
76291;DHT22;65100;46.884;17.410;2024-02-28T09:29:04;15.62;71.11
76291;DHT22;65100;46.884;17.410;2024-02-28T09:31:30;15.70;70.84
76291;DHT22;65100;46.884;17.410;2024-02-28T09:33:55;15.76;71.37
76291;DHT22;65100;46.884;17.410;2024-02-28T09:36:23;15.69;70.41
76291;DHT22;65100;46.884;17.410;2024-02-28T09:38:49;15.63;70.75
76291;DHT22;65100;46.884;17.410;2024-02-28T09:41:15;16.07;69.17
76291;DHT22;65100;46.884;17.410;2024-02-28T09:43:41;16.40;68.16
76291;DHT22;65100;46.884;17.410;2024-02-28T09:46:08;16.07;68.76
76291;DHT22;65100;46.884;17.410;2024-02-28T09:48:38;15.89;70.03
76291;DHT22;65100;46.884;17.410;2024-02-28T09:54:27;15.59;69.95
76291;DHT22;65100;46.884;17.410;2024-02-28T09:56:52;15.67;69.95
76291;DHT22;65100;46.884;17.410;2024-02-28T09:59:18;15.52;70.58
76291;DHT22;65100;46.884;17.410;2024-02-28T10:01:53;15.67;69.89
76291;DHT22;65100;46.884;17.410;2024-02-28T10:04:19;15.43;69.96
76291;DHT22;65100;46.884;17.410;2024-02-28T10:06:46;15.58;70.17
76291;DHT22;65100;46.884;17.410;2024-02-28T10:09:14;15.38;70.16
76291;DHT22;65100;46.884;17.410;2024-02-28T10:11:41;15.61;70.95
76291;DHT22;65100;46.884;17.410;2024-02-28T10:14:08;15.78;70.45
76291;DHT22;65100;46.884;17.410;2024-02-28T10:16:34;16.03;70.09
76291;DHT22;65100;46.884;17.410;2024-02-28T10:18:59;16.07;69.72
76291;DHT22;65100;46.884;17.410;2024-02-28T10:21:25;16.16;68.73
76291;DHT22;65100;46.884;17.410;2024-02-28T10:23:51;15.78;70.64
76291;DHT22;65100;46.884;17.410;2024-02-28T10:26:17;16.07;68.79
76291;DHT22;65100;46.884;17.410;2024-02-28T10:28:42;16.27;68.65
76291;DHT22;65100;46.884;17.410;2024-02-28T10:31:11;16.40;69.50
76291;DHT22;65100;46.884;17.410;2024-02-28T10:33:37;16.63;69.76
76291;DHT22;65100;46.884;17.410;2024-02-28T10:36:06;16.81;68.44
76291;DHT22;65100;46.884;17.410;2024-02-28T10:38:32;17.08;67.73
76291;DHT22;65100;46.884;17.410;2024-02-28T10:41:05;17.21;65.91
76291;DHT22;65100;46.884;17.410;2024-02-28T10:43:31;17.31;65.87
76291;DHT22;65100;46.884;17.410;2024-02-28T10:46:00;17.35;66.14
76291;DHT22;65100;46.884;17.410;2024-02-28T10:48:26;17.32;65.29
76291;DHT22;65100;46.884;17.410;2024-02-28T10:50:52;17.11;66.35
76291;DHT22;65100;46.884;17.410;2024-02-28T10:53:22;16.94;64.99
76291;DHT22;65100;46.884;17.410;2024-02-28T10:55:53;16.91;65.36
76291;DHT22;65100;46.884;17.410;2024-02-28T10:58:22;16.98;65.62
76291;DHT22;65100;46.884;17.410;2024-02-28T11:00:52;17.07;65.96
76291;DHT22;65100;46.884;17.410;2024-02-28T11:03:18;17.19;66.00
76291;DHT22;65100;46.884;17.410;2024-02-28T11:05:44;17.52;65.52
76291;DHT22;65100;46.884;17.410;2024-02-28T11:08:24;17.68;64.34
76291;DHT22;65100;46.884;17.410;2024-02-28T11:11:02;17.83;63.98
76291;DHT22;65100;46.884;17.410;2024-02-28T11:13:34;17.69;63.24
76291;DHT22;65100;46.884;17.410;2024-02-28T11:16:09;17.61;64.19
76291;DHT22;65100;46.884;17.410;2024-02-28T11:18:35;17.35;63.35
76291;DHT22;65100;46.884;17.410;2024-02-28T11:21:00;17.41;64.14
76291;DHT22;65100;46.884;17.410;2024-02-28T11:23:35;17.71;63.79
76291;DHT22;65100;46.884;17.410;2024-02-28T11:26:02;17.85;62.55
76291;DHT22;65100;46.884;17.410;2024-02-28T11:28:31;18.10;63.05
76291;DHT22;65100;46.884;17.410;2024-02-28T11:30:59;18.12;62.80
76291;DHT22;65100;46.884;17.410;2024-02-28T11:33:25;18.14;62.63
76291;DHT22;65100;46.884;17.410;2024-02-28T11:35:58;18.19;61.35
76291;DHT22;65100;46.884;17.410;2024-02-28T11:38:31;18.23;61.54
76291;DHT22;65100;46.884;17.410;2024-02-28T11:40:59;18.29;61.95
76291;DHT22;65100;46.884;17.410;2024-02-28T11:43:27;18.39;61.81
76291;DHT22;65100;46.884;17.410;2024-02-28T11:45:53;18.50;61.43
76291;DHT22;65100;46.884;17.410;2024-02-28T11:48:21;18.51;60.48
76291;DHT22;65100;46.884;17.410;2024-02-28T11:50:47;18.43;60.86
76291;DHT22;65100;46.884;17.410;2024-02-28T11:53:12;18.44;60.75
76291;DHT22;65100;46.884;17.410;2024-02-28T11:55:37;18.36;60.00
76291;DHT22;65100;46.884;17.410;2024-02-28T11:58:08;18.33;60.00
76291;DHT22;65100;46.884;17.410;2024-02-28T12:00:34;18.40;60.27
76291;DHT22;65100;46.884;17.410;2024-02-28T12:03:06;18.12;61.09
76291;DHT22;65100;46.884;17.410;2024-02-28T12:05:31;18.02;60.97
76291;DHT22;65100;46.884;17.410;2024-02-28T12:07:56;17.89;61.37
76291;DHT22;65100;46.884;17.410;2024-02-28T12:10:25;17.93;60.37
76291;DHT22;65100;46.884;17.410;2024-02-28T12:12:50;17.99;62.13
76291;DHT22;65100;46.884;17.410;2024-02-28T12:15:16;18.14;60.73
76291;DHT22;65100;46.884;17.410;2024-02-28T12:17:42;18.06;61.91
76291;DHT22;65100;46.884;17.410;2024-02-28T12:20:09;17.97;61.27
76291;DHT22;65100;46.884;17.410;2024-02-28T12:22:34;17.95;61.88
76291;DHT22;65100;46.884;17.410;2024-02-28T12:25:00;18.29;61.68
76291;DHT22;65100;46.884;17.410;2024-02-28T12:27:30;18.57;61.16
76291;DHT22;65100;46.884;17.410;2024-02-28T12:29:56;18.50;58.99
76291;DHT22;65100;46.884;17.410;2024-02-28T12:32:22;18.23;57.43
76291;DHT22;65100;46.884;17.410;2024-02-28T12:34:48;18.39;58.49
76291;DHT22;65100;46.884;17.410;2024-02-28T12:37:13;18.60;58.67
76291;DHT22;65100;46.884;17.410;2024-02-28T12:39:39;18.75;57.98
76291;DHT22;65100;46.884;17.410;2024-02-28T12:42:04;18.94;57.11
76291;DHT22;65100;46.884;17.410;2024-02-28T12:44:32;18.95;57.35
76291;DHT22;65100;46.884;17.410;2024-02-28T12:46:57;19.11;56.41
76291;DHT22;65100;46.884;17.410;2024-02-28T12:49:23;19.28;56.19
76291;DHT22;65100;46.884;17.410;2024-02-28T12:51:48;19.14;55.84
76291;DHT22;65100;46.884;17.410;2024-02-28T12:54:14;19.19;55.35
76291;DHT22;65100;46.884;17.410;2024-02-28T12:56:41;19.11;55.00
76291;DHT22;65100;46.884;17.410;2024-02-28T12:59:09;19.12;56.05
76291;DHT22;65100;46.884;17.410;2024-02-28T13:01:35;18.95;54.27
76291;DHT22;65100;46.884;17.410;2024-02-28T13:04:01;18.75;53.53
76291;DHT22;65100;46.884;17.410;2024-02-28T13:06:27;18.97;53.90
76291;DHT22;65100;46.884;17.410;2024-02-28T13:08:53;18.75;52.52
76291;DHT22;65100;46.884;17.410;2024-02-28T13:11:20;18.77;54.40
76291;DHT22;65100;46.884;17.410;2024-02-28T13:13:46;18.98;52.56
76291;DHT22;65100;46.884;17.410;2024-02-28T13:16:12;18.78;51.48
76291;DHT22;65100;46.884;17.410;2024-02-28T13:18:38;18.67;49.64
76291;DHT22;65100;46.884;17.410;2024-02-28T13:21:03;18.43;50.55
76291;DHT22;65100;46.884;17.410;2024-02-28T13:23:30;18.39;51.08
76291;DHT22;65100;46.884;17.410;2024-02-28T13:25:59;18.54;51.09
76291;DHT22;65100;46.884;17.410;2024-02-28T13:28:26;18.43;49.01
76291;DHT22;65100;46.884;17.410;2024-02-28T13:30:58;18.10;53.14
76291;DHT22;65100;46.884;17.410;2024-02-28T13:33:24;18.12;52.55
76291;DHT22;65100;46.884;17.410;2024-02-28T13:35:50;18.02;53.12
76291;DHT22;65100;46.884;17.410;2024-02-28T13:38:17;17.97;53.84
76291;DHT22;65100;46.884;17.410;2024-02-28T13:40:42;18.16;52.92
76291;DHT22;65100;46.884;17.410;2024-02-28T13:43:10;18.09;54.55
76291;DHT22;65100;46.884;17.410;2024-02-28T13:45:36;18.20;54.28
76291;DHT22;65100;46.884;17.410;2024-02-28T13:48:02;18.00;54.60
76291;DHT22;65100;46.884;17.410;2024-02-28T13:50:28;18.02;55.37
76291;DHT22;65100;46.884;17.410;2024-02-28T13:52:57;18.13;55.36
76291;DHT22;65100;46.884;17.410;2024-02-28T13:55:23;17.99;55.08
76291;DHT22;65100;46.884;17.410;2024-02-28T13:57:48;17.96;56.53
76291;DHT22;65100;46.884;17.410;2024-02-28T14:00:14;17.93;52.10
76291;DHT22;65100;46.884;17.410;2024-02-28T14:02:40;17.89;53.58
76291;DHT22;65100;46.884;17.410;2024-02-28T14:05:06;17.87;56.82
76291;DHT22;65100;46.884;17.410;2024-02-28T14:07:33;17.83;54.59
76291;DHT22;65100;46.884;17.410;2024-02-28T14:09:59;17.87;55.77
76291;DHT22;65100;46.884;17.410;2024-02-28T14:12:25;17.85;57.40
76291;DHT22;65100;46.884;17.410;2024-02-28T14:14:50;17.82;56.62
76291;DHT22;65100;46.884;17.410;2024-02-28T14:17:16;17.65;56.51
76291;DHT22;65100;46.884;17.410;2024-02-28T14:19:41;17.62;54.69
76291;DHT22;65100;46.884;17.410;2024-02-28T14:22:07;17.68;55.36
76291;DHT22;65100;46.884;17.410;2024-02-28T14:24:35;17.68;55.90
76291;DHT22;65100;46.884;17.410;2024-02-28T14:27:04;17.56;54.95
76291;DHT22;65100;46.884;17.410;2024-02-28T14:29:29;17.62;54.45
76291;DHT22;65100;46.884;17.410;2024-02-28T14:31:55;17.66;53.52
76291;DHT22;65100;46.884;17.410;2024-02-28T14:34:20;17.59;54.25
76291;DHT22;65100;46.884;17.410;2024-02-28T14:36:47;17.59;53.30
76291;DHT22;65100;46.884;17.410;2024-02-28T14:39:13;17.46;53.77
76291;DHT22;65100;46.884;17.410;2024-02-28T14:41:44;17.48;54.67
76291;DHT22;65100;46.884;17.410;2024-02-28T14:44:11;17.46;55.22
76291;DHT22;65100;46.884;17.410;2024-02-28T14:46:36;17.46;55.58
76291;DHT22;65100;46.884;17.410;2024-02-28T14:49:02;17.41;54.53
76291;DHT22;65100;46.884;17.410;2024-02-28T14:51:28;17.35;53.51
76291;DHT22;65100;46.884;17.410;2024-02-28T14:53:55;17.35;54.15
76291;DHT22;65100;46.884;17.410;2024-02-28T14:56:21;17.27;53.28
76291;DHT22;65100;46.884;17.410;2024-02-28T14:58:47;17.25;53.08
76291;DHT22;65100;46.884;17.410;2024-02-28T15:01:12;17.19;54.17
76291;DHT22;65100;46.884;17.410;2024-02-28T15:03:38;17.17;53.39
76291;DHT22;65100;46.884;17.410;2024-02-28T15:06:04;17.17;52.65
76291;DHT22;65100;46.884;17.410;2024-02-28T15:08:29;17.18;53.10
76291;DHT22;65100;46.884;17.410;2024-02-28T15:10:54;17.15;53.83
76291;DHT22;65100;46.884;17.410;2024-02-28T15:13:20;17.10;54.52
76291;DHT22;65100;46.884;17.410;2024-02-28T15:15:45;16.94;55.36
76291;DHT22;65100;46.884;17.410;2024-02-28T15:18:11;16.85;56.37
76291;DHT22;65100;46.884;17.410;2024-02-28T15:20:36;16.92;57.11
76291;DHT22;65100;46.884;17.410;2024-02-28T15:23:03;16.91;57.96
76291;DHT22;65100;46.884;17.410;2024-02-28T15:25:29;16.77;59.45